createdAt,value
2023-04-29T00:00:30.241Z,2.37
2023-04-29T00:03:01.112Z,2.80
2023-04-29T00:05:29.637Z,2.20
2023-04-29T00:07:57.922Z,1.80
2023-04-29T00:10:26.228Z,2.20
2023-04-29T00:12:54.489Z,2.60
2023-04-29T00:15:22.745Z,2.10
2023-04-29T00:17:51.119Z,2.43
2023-04-29T00:20:20.926Z,2.30
2023-04-29T00:22:49.464Z,2.57
2023-04-29T00:25:17.809Z,1.80
2023-04-29T00:27:46.097Z,2.47
2023-04-29T00:30:14.388Z,2.30
2023-04-29T00:32:43.891Z,2.77
2023-04-29T00:35:12.199Z,2.30
2023-04-29T00:37:41.805Z,2.27
2023-04-29T00:40:10.770Z,2.30
2023-04-29T00:42:39.135Z,2.27
2023-04-29T00:45:08.314Z,2.23
2023-04-29T00:47:36.753Z,2.40
2023-04-29T00:50:05.081Z,2.03
2023-04-29T00:52:33.343Z,2.50
2023-04-29T00:55:03.091Z,1.93
2023-04-29T00:57:31.332Z,2.00
2023-04-29T00:59:59.857Z,2.70
2023-04-29T01:02:28.595Z,2.73
2023-04-29T01:04:57.164Z,3.33
2023-04-29T01:07:25.962Z,2.57
2023-04-29T01:09:55.994Z,1.90
2023-04-29T01:12:28.136Z,2.10
2023-04-29T01:14:56.795Z,2.50
2023-04-29T01:17:26.903Z,2.30
2023-04-29T01:19:57.029Z,2.47
2023-04-29T01:22:25.306Z,1.80
2023-04-29T01:24:55.001Z,2.20
2023-04-29T01:27:26.091Z,2.10
2023-04-29T01:29:55.308Z,2.03
2023-04-29T01:32:25.168Z,2.20
2023-04-29T01:35:02.520Z,2.30
2023-04-29T01:37:39.902Z,2.23
2023-04-29T01:40:11.603Z,2.50
2023-04-29T01:42:41.338Z,2.50
2023-04-29T01:45:10.345Z,2.50
2023-04-29T01:47:38.705Z,2.10
2023-04-29T01:50:07.452Z,1.63
2023-04-29T01:52:36.724Z,1.50
2023-04-29T01:55:05.177Z,2.30
2023-04-29T01:57:35.093Z,2.53
2023-04-29T02:00:04.823Z,2.33
2023-04-29T02:02:33.197Z,1.87
2023-04-29T02:05:01.678Z,2.47
2023-04-29T02:07:30.026Z,1.70
2023-04-29T02:09:58.346Z,2.40
2023-04-29T02:12:26.603Z,1.63
2023-04-29T02:14:56.239Z,1.90
2023-04-29T02:17:24.551Z,1.80
2023-04-29T02:19:55.022Z,1.90
2023-04-29T02:22:23.353Z,1.70
2023-04-29T02:24:52.125Z,2.27
2023-04-29T02:27:20.416Z,2.27
2023-04-29T02:29:48.707Z,2.10
2023-04-29T02:32:20.128Z,2.47
2023-04-29T02:34:49.284Z,1.20
2023-04-29T02:37:17.628Z,2.10
2023-04-29T02:39:46.081Z,1.97
2023-04-29T02:42:14.372Z,1.70
2023-04-29T02:44:42.659Z,1.80
2023-04-29T02:47:10.988Z,2.47
2023-04-29T02:49:40.658Z,1.90
2023-04-29T02:52:09.122Z,1.40
2023-04-29T02:54:38.024Z,1.73
2023-04-29T02:57:06.288Z,1.70
2023-04-29T02:59:34.613Z,1.77
2023-04-29T03:02:03.006Z,1.60
2023-04-29T03:04:31.341Z,1.97
2023-04-29T03:07:01.249Z,1.40
2023-04-29T03:09:29.547Z,1.67
2023-04-29T03:11:57.801Z,1.40
2023-04-29T03:14:26.405Z,1.50
2023-04-29T03:16:56.430Z,1.73
2023-04-29T03:19:24.845Z,1.73
2023-04-29T03:21:54.035Z,2.00
2023-04-29T03:24:23.868Z,1.00
2023-04-29T03:26:52.128Z,1.40
2023-04-29T03:29:20.380Z,1.70
2023-04-29T03:31:48.734Z,1.80
2023-04-29T03:34:17.016Z,1.40
2023-04-29T03:36:45.281Z,1.50
2023-04-29T03:39:13.664Z,1.20
2023-04-29T03:41:43.413Z,1.17
2023-04-29T03:44:11.660Z,1.77
2023-04-29T03:46:40.161Z,1.70
2023-04-29T03:49:08.596Z,1.70
2023-04-29T03:51:36.864Z,1.50
2023-04-29T03:54:05.145Z,2.03
2023-04-29T03:56:33.398Z,1.10
2023-04-29T03:59:03.097Z,1.10
2023-04-29T04:01:31.358Z,1.37
2023-04-29T04:03:59.829Z,1.17
2023-04-29T04:06:28.314Z,1.10
2023-04-29T04:08:56.589Z,1.30
2023-04-29T04:11:24.840Z,1.60
2023-04-29T04:13:53.112Z,1.33
2023-04-29T04:16:22.831Z,1.10
2023-04-29T04:18:51.144Z,1.47
2023-04-29T04:21:19.391Z,1.33
2023-04-29T04:23:47.703Z,1.37
2023-04-29T04:26:15.996Z,1.20
2023-04-29T04:28:44.263Z,1.50
2023-04-29T04:31:13.387Z,1.40
2023-04-29T04:33:43.000Z,1.20
2023-04-29T04:36:11.262Z,1.47
2023-04-29T04:38:39.580Z,1.70
2023-04-29T04:41:08.497Z,1.37
2023-04-29T04:43:36.725Z,1.20
2023-04-29T04:46:11.696Z,1.20
2023-04-29T04:48:40.076Z,1.40
2023-04-29T04:51:12.558Z,1.40
2023-04-29T04:53:40.916Z,1.10
2023-04-29T04:56:09.575Z,1.47
2023-04-29T04:58:37.875Z,1.60
2023-04-29T05:01:06.220Z,1.07
2023-04-29T05:03:34.660Z,1.10
2023-04-29T05:06:03.095Z,1.03
2023-04-29T05:08:32.707Z,1.60
2023-04-29T05:11:01.061Z,1.27
2023-04-29T05:13:29.358Z,1.10
2023-04-29T05:15:57.617Z,1.10
2023-04-29T05:18:25.881Z,1.17
2023-04-29T05:20:54.205Z,1.47
2023-04-29T05:23:23.101Z,1.20
2023-04-29T05:25:52.733Z,1.40
2023-04-29T05:28:21.052Z,1.13
2023-04-29T05:30:49.352Z,1.20
2023-04-29T05:33:17.591Z,1.13
2023-04-29T05:35:45.861Z,0.70
2023-04-29T05:38:14.139Z,0.90
2023-04-29T05:40:42.438Z,1.10
2023-04-29T05:43:12.820Z,1.00
2023-04-29T05:45:41.103Z,0.93
2023-04-29T05:48:09.425Z,1.37
2023-04-29T05:50:37.779Z,0.90
2023-04-29T05:53:06.035Z,0.83
2023-04-29T05:55:34.310Z,0.50
2023-04-29T05:58:02.710Z,1.07
2023-04-29T06:00:32.802Z,1.00
2023-04-29T06:03:01.172Z,0.90
2023-04-29T06:05:29.986Z,0.90
2023-04-29T06:07:58.472Z,0.90
2023-04-29T06:10:26.996Z,0.67
2023-04-29T06:12:55.287Z,1.30
2023-04-29T06:15:23.623Z,1.10
2023-04-29T06:17:53.627Z,2.07
2023-04-29T06:20:22.019Z,2.73
2023-04-29T06:22:50.296Z,4.40
2023-04-29T06:25:18.594Z,3.53
2023-04-29T06:27:47.057Z,3.63
2023-04-29T06:30:15.417Z,3.50
2023-04-29T06:32:43.698Z,3.50
2023-04-29T06:35:13.423Z,3.70
2023-04-29T06:37:41.688Z,3.70
2023-04-29T06:40:10.517Z,3.10
2023-04-29T06:42:39.293Z,3.10
2023-04-29T06:45:08.197Z,3.50
2023-04-29T06:47:36.555Z,2.53
2023-04-29T06:50:05.391Z,2.50
2023-04-29T06:52:35.153Z,3.40
2023-04-29T06:55:03.464Z,2.70
2023-04-29T06:57:32.146Z,1.87
2023-04-29T07:00:00.435Z,1.87
2023-04-29T07:02:28.765Z,2.20
2023-04-29T07:04:57.295Z,1.77
2023-04-29T07:07:25.812Z,2.43
2023-04-29T07:09:55.793Z,2.27
2023-04-29T07:12:24.274Z,1.60
2023-04-29T07:14:52.532Z,1.77
2023-04-29T07:17:20.877Z,1.60
2023-04-29T07:19:49.252Z,1.67
2023-04-29T07:22:17.664Z,1.40
2023-04-29T07:24:45.930Z,0.97
2023-04-29T07:27:15.691Z,1.70
2023-04-29T07:29:43.938Z,1.30
2023-04-29T07:32:12.246Z,1.10
2023-04-29T07:34:40.562Z,1.73
2023-04-29T07:37:08.928Z,0.70
2023-04-29T07:39:37.178Z,1.00
2023-04-29T07:42:05.530Z,1.23
2023-04-29T07:44:35.167Z,1.07
2023-04-29T07:47:03.466Z,0.73
2023-04-29T07:49:31.798Z,1.00
2023-04-29T07:52:00.254Z,1.30
2023-04-29T07:54:28.498Z,0.80
2023-04-29T07:56:56.767Z,1.20
2023-04-29T07:59:25.061Z,1.13
2023-04-29T08:01:54.706Z,1.33
2023-04-29T08:04:23.215Z,1.20
2023-04-29T08:06:51.992Z,1.07
2023-04-29T08:09:20.440Z,0.73
2023-04-29T08:11:48.849Z,0.83
2023-04-29T08:14:17.123Z,0.63
2023-04-29T08:16:45.450Z,0.87
2023-04-29T08:19:15.159Z,0.77
2023-04-29T08:21:43.497Z,0.93
2023-04-29T08:24:12.041Z,0.70
2023-04-29T08:26:41.813Z,0.80
2023-04-29T08:29:10.098Z,0.73
2023-04-29T08:31:38.388Z,0.90
2023-04-29T08:34:06.728Z,1.03
2023-04-29T08:36:38.648Z,0.80
2023-04-29T08:39:06.952Z,0.50
2023-04-29T08:41:35.238Z,0.77
2023-04-29T08:44:03.536Z,0.90
2023-04-29T08:46:31.821Z,0.53
2023-04-29T08:49:00.114Z,1.17
2023-04-29T08:51:28.401Z,0.93
2023-04-29T08:53:58.478Z,0.50
2023-04-29T08:56:28.835Z,0.83
2023-04-29T08:58:58.985Z,0.80
2023-04-29T09:01:27.369Z,0.90
2023-04-29T09:03:57.107Z,1.10
2023-04-29T09:06:25.554Z,0.60
2023-04-29T09:08:54.314Z,1.07
2023-04-29T09:11:23.976Z,0.80
2023-04-29T09:13:52.259Z,0.83
2023-04-29T09:16:20.597Z,0.70
2023-04-29T09:18:49.552Z,0.60
2023-04-29T09:21:21.078Z,1.03
2023-04-29T09:23:51.024Z,0.70
2023-04-29T09:26:19.412Z,0.80
2023-04-29T09:28:49.794Z,1.07
2023-04-29T09:31:18.107Z,0.70
2023-04-29T09:33:52.564Z,0.80
2023-04-29T09:36:40.068Z,0.87
2023-04-29T09:39:11.776Z,0.80
2023-04-29T09:41:44.272Z,0.60
2023-04-29T09:44:13.940Z,0.50
2023-04-29T09:46:42.205Z,0.73
2023-04-29T09:49:24.902Z,0.93
2023-04-29T09:51:56.800Z,0.90
2023-04-29T09:54:25.428Z,0.60
2023-04-29T09:56:54.420Z,0.50
2023-04-29T09:59:24.288Z,0.90
2023-04-29T10:01:53.009Z,0.60
2023-04-29T10:04:21.747Z,0.60
2023-04-29T10:06:51.011Z,0.90
2023-04-29T10:09:19.573Z,0.80
2023-04-29T10:11:48.111Z,0.70
2023-04-29T10:14:17.839Z,0.80
2023-04-29T10:16:51.039Z,0.60
2023-04-29T10:19:26.899Z,0.80
2023-04-29T10:21:57.079Z,0.70
2023-04-29T10:24:25.399Z,0.80
2023-04-29T10:26:54.045Z,0.73
2023-04-29T10:29:22.383Z,0.60
2023-04-29T10:31:52.052Z,0.50
2023-04-29T10:34:20.682Z,0.73
2023-04-29T10:36:49.011Z,1.27
2023-04-29T10:39:19.663Z,0.73
2023-04-29T10:41:48.034Z,0.60
2023-04-29T10:44:16.316Z,0.87
2023-04-29T10:46:44.809Z,0.90
2023-04-29T10:49:14.490Z,0.60
2023-04-29T10:51:43.209Z,0.93
2023-04-29T10:54:11.876Z,0.90
2023-04-29T10:56:40.812Z,1.00
2023-04-29T10:59:12.086Z,0.83
2023-04-29T11:01:44.324Z,0.70
2023-04-29T11:04:14.158Z,0.83
2023-04-29T11:06:43.192Z,1.03
2023-04-29T11:09:12.493Z,0.90
2023-04-29T11:11:52.190Z,1.30
2023-04-29T11:14:23.456Z,0.73
2023-04-29T11:16:53.752Z,1.23
2023-04-29T11:19:24.543Z,0.83
2023-04-29T11:21:53.309Z,1.07
2023-04-29T11:24:22.396Z,0.97
2023-04-29T11:26:50.761Z,1.23
2023-04-29T11:29:19.779Z,1.27
2023-04-29T11:31:48.184Z,0.80
2023-04-29T11:34:16.582Z,0.93
2023-04-29T11:36:47.679Z,1.10
2023-04-29T11:39:16.061Z,0.90
2023-04-29T11:41:44.602Z,1.00
2023-04-29T11:44:13.602Z,0.73
2023-04-29T11:46:41.924Z,0.90
2023-04-29T11:49:10.197Z,1.30
2023-04-29T11:51:38.463Z,1.50
2023-04-29T11:54:08.349Z,1.17
2023-04-29T11:56:37.588Z,1.40
2023-04-29T11:59:08.116Z,0.90
2023-04-29T12:01:37.965Z,1.37
2023-04-29T12:04:07.428Z,1.10
2023-04-29T12:06:35.864Z,1.27
2023-04-29T12:09:04.567Z,0.90
2023-04-29T12:11:34.318Z,1.30
2023-04-29T12:14:06.117Z,0.80
2023-04-29T12:16:34.628Z,1.23
2023-04-29T12:19:03.017Z,1.03
2023-04-29T12:21:31.827Z,1.47
2023-04-29T12:24:01.720Z,2.00
2023-04-29T12:26:30.288Z,0.97
2023-04-29T12:29:00.438Z,1.37
2023-04-29T12:31:36.497Z,1.20
2023-04-29T12:34:08.353Z,1.20
2023-04-29T12:36:38.220Z,1.00
2023-04-29T12:39:10.287Z,1.40
2023-04-29T12:41:39.046Z,1.10
2023-04-29T12:44:10.769Z,0.90
2023-04-29T12:46:39.350Z,1.00
2023-04-29T12:49:07.746Z,1.00
2023-04-29T12:51:36.665Z,0.97
2023-04-29T12:54:06.812Z,1.10
2023-04-29T12:56:35.109Z,1.00
2023-04-29T12:59:11.863Z,1.50
2023-04-29T13:01:40.333Z,1.30
2023-04-29T13:04:09.236Z,1.17
2023-04-29T13:06:41.127Z,1.40
2023-04-29T13:09:17.009Z,1.40
2023-04-29T13:11:47.130Z,1.10
2023-04-29T13:14:16.826Z,1.50
2023-04-29T13:16:45.267Z,1.37
2023-04-29T13:19:32.162Z,1.10
2023-04-29T13:22:01.942Z,1.00
2023-04-29T13:24:30.320Z,1.10
2023-04-29T13:26:58.718Z,0.90
2023-04-29T13:29:28.609Z,1.40
2023-04-29T13:31:57.251Z,1.50
2023-04-29T13:34:25.534Z,1.33
2023-04-29T13:36:53.855Z,1.10
2023-04-29T13:39:23.297Z,1.17
2023-04-29T13:41:51.930Z,1.30
2023-04-29T13:44:29.466Z,1.40
2023-04-29T13:47:05.270Z,1.13
2023-04-29T13:53:00.734Z,0.80
2023-04-29T13:58:13.238Z,1.10
2023-04-29T14:00:38.129Z,1.33
2023-04-29T14:03:07.530Z,1.50
2023-04-29T14:05:36.084Z,1.50
2023-04-29T14:08:04.506Z,1.10
2023-04-29T14:10:32.834Z,1.33
2023-04-29T14:13:01.488Z,1.03
2023-04-29T14:15:29.798Z,1.07
2023-04-29T14:17:58.257Z,1.30
2023-04-29T14:20:28.272Z,0.97
2023-04-29T14:22:56.551Z,1.23
2023-04-29T14:25:26.597Z,1.00
2023-04-29T14:27:55.665Z,1.47
2023-04-29T14:30:24.068Z,1.17
2023-04-29T14:32:52.405Z,1.37
2023-04-29T14:35:20.944Z,1.57
2023-04-29T14:37:50.695Z,1.30
2023-04-29T14:40:19.012Z,1.07
2023-04-29T14:42:47.324Z,1.20
2023-04-29T14:45:15.636Z,1.00
2023-04-29T14:47:44.011Z,0.80
2023-04-29T14:50:12.302Z,1.43
2023-04-29T14:52:40.647Z,2.00
2023-04-29T14:55:10.469Z,1.50
2023-04-29T14:57:38.893Z,2.20
2023-04-29T15:00:08.457Z,1.43
2023-04-29T15:02:36.815Z,1.33
2023-04-29T15:05:05.162Z,1.03
2023-04-29T15:07:33.980Z,1.27
2023-04-29T15:10:02.368Z,1.10
2023-04-29T15:12:32.148Z,1.47
2023-04-29T15:15:00.460Z,1.10
2023-04-29T15:17:28.808Z,1.30
2023-04-29T15:19:57.128Z,1.37
2023-04-29T15:22:25.456Z,1.03
2023-04-29T15:24:53.782Z,1.00
2023-04-29T15:27:22.492Z,0.90
2023-04-29T15:29:54.424Z,1.00
2023-04-29T15:32:23.013Z,1.03
2023-04-29T15:34:51.405Z,0.80
2023-04-29T15:37:19.708Z,0.83
2023-04-29T15:39:47.967Z,0.80
2023-04-29T15:42:16.239Z,1.10
2023-04-29T15:44:44.572Z,0.80
2023-04-29T15:47:14.258Z,0.90
2023-04-29T15:49:43.268Z,0.80
2023-04-29T15:52:11.957Z,0.70
2023-04-29T15:54:41.000Z,0.90
2023-04-29T15:57:09.313Z,1.47
2023-04-29T15:59:37.660Z,1.27
2023-04-29T16:02:10.401Z,1.20
2023-04-29T16:04:40.124Z,2.27
2023-04-29T16:07:08.420Z,1.33
2023-04-29T16:09:36.801Z,2.10
2023-04-29T16:12:05.232Z,2.60
2023-04-29T16:14:33.843Z,3.35
2023-04-29T16:17:02.292Z,3.17
2023-04-29T16:19:30.600Z,3.63
2023-04-29T16:22:00.287Z,2.67
2023-04-29T16:24:28.658Z,2.77
2023-04-29T16:26:58.844Z,2.40
2023-04-29T16:29:27.373Z,1.43
2023-04-29T16:31:55.903Z,1.97
2023-04-29T16:34:24.179Z,1.20
2023-04-29T16:36:52.843Z,1.20
2023-04-29T16:39:22.520Z,0.93
2023-04-29T16:41:51.533Z,1.50
2023-04-29T16:44:19.854Z,1.43
2023-04-29T16:46:48.161Z,1.27
2023-04-29T16:49:16.783Z,1.37
2023-04-29T16:51:45.095Z,0.83
2023-04-29T16:54:13.390Z,1.20
2023-04-29T16:56:43.042Z,0.67
2023-04-29T16:59:12.449Z,1.10
2023-04-29T17:01:40.867Z,1.00
2023-04-29T17:04:09.310Z,0.80
2023-04-29T17:06:39.777Z,1.20
2023-04-29T17:09:08.167Z,0.70
2023-04-29T17:11:36.475Z,1.10
2023-04-29T17:14:06.160Z,0.60
2023-04-29T17:16:34.549Z,0.70
2023-04-29T17:19:02.923Z,0.60
2023-04-29T17:21:32.869Z,0.80
2023-04-29T17:24:01.284Z,0.70
2023-04-29T17:26:30.673Z,0.83
2023-04-29T17:28:59.260Z,0.90
2023-04-29T17:31:44.735Z,0.90
2023-04-29T17:34:18.587Z,0.80
2023-04-29T17:36:47.779Z,0.63
2023-04-29T17:39:16.173Z,0.50
2023-04-29T17:41:44.476Z,0.60
2023-04-29T17:44:12.760Z,1.07
2023-04-29T17:46:42.702Z,0.60
2023-04-29T17:49:11.505Z,0.60
2023-04-29T17:51:39.792Z,0.70
2023-04-29T17:54:08.504Z,0.40
2023-04-29T17:56:36.956Z,0.60
2023-04-29T17:59:06.257Z,0.67
2023-04-29T18:01:34.607Z,0.50
2023-04-29T18:04:04.850Z,0.87
2023-04-29T18:06:33.356Z,0.53
2023-04-29T18:09:01.725Z,0.60
2023-04-29T18:11:30.054Z,0.70
2023-04-29T18:13:58.656Z,0.50
2023-04-29T18:16:27.277Z,0.47
2023-04-29T18:18:56.963Z,0.60
2023-04-29T18:21:27.561Z,0.60
2023-04-29T18:23:56.026Z,0.53
2023-04-29T18:26:24.452Z,0.63
2023-04-29T18:28:52.850Z,0.43
2023-04-29T18:31:23.238Z,0.80
2023-04-29T18:33:51.601Z,0.60
2023-04-29T18:36:21.323Z,0.57
2023-04-29T18:38:51.117Z,0.67
2023-04-29T18:41:19.435Z,0.50
2023-04-29T18:43:47.774Z,0.60
2023-04-29T18:46:16.367Z,0.80
2023-04-29T18:48:44.770Z,0.90
2023-04-29T18:51:13.076Z,0.67
2023-04-29T18:53:41.978Z,0.87
2023-04-29T18:56:11.765Z,0.50
2023-04-29T18:58:40.070Z,0.60
2023-04-29T19:01:08.475Z,0.80
2023-04-29T19:03:36.872Z,0.60
2023-04-29T19:06:05.358Z,0.57
2023-04-29T19:08:33.702Z,0.70
2023-04-29T19:11:02.114Z,0.70
2023-04-29T19:13:31.758Z,0.67
2023-04-29T19:16:00.049Z,0.53
2023-04-29T19:18:28.588Z,0.50
2023-04-29T19:20:57.126Z,0.67
2023-04-29T19:23:25.410Z,0.90
2023-04-29T19:25:53.903Z,0.80
2023-04-29T19:28:22.213Z,0.57
2023-04-29T19:30:51.902Z,1.03
2023-04-29T19:33:20.228Z,0.70
2023-04-29T19:35:48.530Z,0.60
2023-04-29T19:38:16.825Z,0.47
2023-04-29T19:40:45.169Z,0.60
2023-04-29T19:43:13.894Z,0.60
2023-04-29T19:45:42.275Z,0.67
2023-04-29T19:48:12.175Z,0.60
2023-04-29T19:50:41.315Z,0.80
2023-04-29T19:53:09.641Z,1.03
2023-04-29T19:55:39.072Z,0.80
2023-04-29T19:58:07.437Z,0.80
2023-04-29T20:00:36.386Z,0.70
2023-04-29T20:03:05.062Z,1.13
2023-04-29T20:05:34.917Z,0.60
2023-04-29T20:08:03.235Z,0.87
2023-04-29T20:10:31.684Z,0.90
2023-04-29T20:13:00.022Z,0.80
2023-04-29T20:15:28.497Z,0.70
2023-04-29T20:17:56.868Z,0.80
2023-04-29T20:20:26.056Z,1.00
2023-04-29T20:22:58.122Z,0.67
2023-04-29T20:25:27.187Z,0.80
2023-04-29T20:27:56.680Z,0.97
2023-04-29T20:30:25.957Z,0.93
2023-04-29T20:32:54.365Z,0.70
2023-04-29T20:35:22.681Z,0.90
2023-04-29T20:37:51.330Z,0.80
2023-04-29T20:40:21.172Z,0.90
2023-04-29T20:42:49.470Z,0.60
2023-04-29T20:45:18.501Z,0.80
2023-04-29T20:47:46.844Z,0.83
2023-04-29T20:50:15.215Z,0.70
2023-04-29T20:52:43.614Z,0.70
2023-04-29T20:55:12.092Z,0.70
2023-04-29T20:57:41.784Z,0.90
2023-04-29T21:00:10.690Z,0.73
2023-04-29T21:02:39.013Z,0.83
2023-04-29T21:05:09.827Z,1.30
2023-04-29T21:07:38.464Z,0.80
2023-04-29T21:10:06.996Z,0.80
2023-04-29T21:12:35.826Z,0.50
2023-04-29T21:15:05.957Z,0.90
2023-04-29T21:17:34.284Z,0.60
2023-04-29T21:20:02.609Z,0.60
2023-04-29T21:22:31.129Z,0.80
2023-04-29T21:24:59.431Z,0.90
2023-04-29T21:27:27.704Z,0.73
2023-04-29T21:29:56.822Z,0.90
2023-04-29T21:32:26.764Z,0.73
2023-04-29T21:34:55.083Z,0.60
2023-04-29T21:37:23.362Z,0.53
2023-04-29T21:39:51.790Z,0.60
2023-04-29T21:42:23.183Z,0.60
2023-04-29T21:44:51.517Z,1.00
2023-04-29T21:47:19.815Z,0.60
2023-04-29T21:49:50.378Z,0.53
2023-04-29T21:52:18.699Z,0.70
2023-04-29T21:54:47.034Z,0.57
2023-04-29T21:57:15.325Z,0.87
2023-04-29T21:59:43.598Z,0.70
2023-04-29T22:02:22.182Z,0.40
2023-04-29T22:04:52.453Z,0.60
2023-04-29T22:07:20.762Z,0.50
2023-04-29T22:09:50.483Z,0.73
2023-04-29T22:12:19.043Z,0.80
2023-04-29T22:14:47.444Z,0.63
2023-04-29T22:17:15.802Z,0.67
2023-04-29T22:19:44.145Z,0.63
2023-04-29T22:22:13.852Z,1.20
2023-04-29T22:24:42.140Z,1.27
2023-04-29T22:27:10.434Z,0.90
2023-04-29T22:29:39.394Z,0.70
2023-04-29T22:32:07.811Z,0.70
2023-04-29T22:34:36.617Z,1.00
2023-04-29T22:37:04.901Z,0.97
2023-04-29T22:39:34.549Z,0.67
2023-04-29T22:42:02.976Z,0.73
2023-04-29T22:44:31.224Z,0.90
2023-04-29T22:46:59.722Z,1.00
2023-04-29T22:49:28.384Z,0.80
2023-04-29T22:51:56.626Z,0.80
2023-04-29T22:54:24.927Z,0.57
2023-04-29T22:56:54.636Z,0.90
2023-04-29T22:59:22.911Z,0.87
2023-04-29T23:01:51.667Z,1.07
2023-04-29T23:04:20.346Z,1.10
2023-04-29T23:06:48.749Z,0.73
2023-04-29T23:09:17.090Z,0.80
2023-04-29T23:11:45.570Z,1.03
2023-04-29T23:14:15.228Z,1.00
2023-04-29T23:16:43.559Z,0.70
2023-04-29T23:19:11.864Z,0.77
2023-04-29T23:21:40.188Z,1.03
2023-04-29T23:24:08.503Z,0.87
2023-04-29T23:26:36.838Z,0.83
2023-04-29T23:29:05.109Z,0.70
2023-04-29T23:31:34.886Z,0.70
2023-04-29T23:34:03.209Z,1.03
2023-04-29T23:36:31.476Z,0.53
2023-04-29T23:38:59.758Z,1.30
2023-04-29T23:41:28.057Z,0.90
2023-04-29T23:44:01.010Z,1.10
2023-04-29T23:46:30.071Z,0.73
2023-04-29T23:48:59.736Z,1.00
2023-04-29T23:51:28.004Z,1.00
2023-04-29T23:53:56.284Z,0.60
2023-04-29T23:56:24.790Z,0.83
2023-04-29T23:58:53.118Z,1.20
